createdAt,value
2023-03-03T00:01:39.896Z,-0.20
2023-03-03T00:04:06.510Z,-0.20
2023-03-03T00:06:33.067Z,-0.10
2023-03-03T00:08:59.693Z,-0.10
2023-03-03T00:11:26.371Z,-0.10
2023-03-03T00:13:54.883Z,-0.10
2023-03-03T00:16:40.659Z,-0.10
2023-03-03T00:19:15.466Z,-0.10
2023-03-03T00:21:45.770Z,-0.20
2023-03-03T00:24:15.263Z,-0.20
2023-03-03T00:26:44.644Z,-0.20
2023-03-03T00:29:29.161Z,-0.20
2023-03-03T00:32:03.623Z,-0.20
2023-03-03T00:34:31.115Z,-0.20
2023-03-03T00:36:58.715Z,-0.30
2023-03-03T00:39:39.604Z,-0.30
2023-03-03T00:42:14.800Z,-0.30
2023-03-03T00:44:48.819Z,-0.30
2023-03-03T00:47:25.353Z,-0.40
2023-03-03T00:49:52.778Z,-0.30
2023-03-03T00:52:20.609Z,-0.40
2023-03-03T00:54:47.585Z,-0.40
2023-03-03T00:57:14.189Z,-0.20
2023-03-03T00:59:41.000Z,-0.40
2023-03-03T01:02:07.681Z,-0.40
2023-03-03T01:04:34.320Z,-0.40
2023-03-03T01:07:00.888Z,-0.40
2023-03-03T01:09:28.168Z,-0.50
2023-03-03T01:11:55.409Z,-0.50
2023-03-03T01:14:22.263Z,-0.60
2023-03-03T01:16:50.099Z,-0.60
2023-03-03T01:19:16.720Z,-0.60
2023-03-03T01:21:43.271Z,-0.60
2023-03-03T01:24:10.641Z,-0.60
2023-03-03T01:26:37.216Z,-0.60
2023-03-03T01:29:03.834Z,-0.60
2023-03-03T01:31:30.418Z,-0.60
2023-03-03T01:33:57.029Z,-0.60
2023-03-03T01:36:25.480Z,-0.60
2023-03-03T01:38:52.109Z,-0.60
2023-03-03T01:41:18.677Z,-0.60
2023-03-03T01:43:48.546Z,-0.60
2023-03-03T01:46:24.664Z,-0.70
2023-03-03T01:48:56.948Z,-0.70
2023-03-03T01:51:57.943Z,-0.70
2023-03-03T01:54:29.617Z,-0.80
2023-03-03T01:57:00.390Z,-0.80
2023-03-03T01:59:37.149Z,-0.80
2023-03-03T02:02:05.006Z,-0.80
2023-03-03T02:04:31.732Z,-0.90
2023-03-03T02:07:04.250Z,-0.80
2023-03-03T02:09:49.805Z,-0.90
2023-03-03T02:12:20.078Z,-0.90
2023-03-03T02:14:46.660Z,-0.90
2023-03-03T02:17:13.362Z,-0.90
2023-03-03T02:19:59.978Z,-0.90
2023-03-03T02:22:47.000Z,-0.90
2023-03-03T02:25:22.460Z,-0.90
2023-03-03T02:27:49.451Z,-0.90
2023-03-03T02:30:22.907Z,-0.90
2023-03-03T02:32:49.508Z,-0.90
2023-03-03T02:35:29.789Z,-0.90
2023-03-03T02:38:03.563Z,-0.90
2023-03-03T02:40:34.584Z,-0.90
2023-03-03T02:43:02.892Z,-1.00
2023-03-03T02:45:29.476Z,-1.00
2023-03-03T02:47:56.104Z,-0.90
2023-03-03T02:50:22.765Z,-1.00
2023-03-03T02:52:49.341Z,-1.00
2023-03-03T02:55:16.031Z,-1.10
2023-03-03T02:57:42.591Z,-1.00
2023-03-03T03:00:10.089Z,-1.10
2023-03-03T03:02:36.712Z,-1.10
2023-03-03T03:05:03.408Z,-1.00
2023-03-03T03:07:30.008Z,-1.00
2023-03-03T03:09:56.602Z,-0.90
2023-03-03T03:12:23.155Z,-0.80
2023-03-03T03:14:49.698Z,-0.80
2023-03-03T03:17:16.270Z,-0.80
2023-03-03T03:19:42.836Z,-0.80
2023-03-03T03:22:09.398Z,-0.70
2023-03-03T03:24:35.966Z,-0.60
2023-03-03T03:27:02.583Z,-0.60
2023-03-03T03:29:29.190Z,-0.50
2023-03-03T03:31:56.107Z,-0.40
2023-03-03T03:34:22.777Z,-0.30
2023-03-03T03:36:49.331Z,-0.30
2023-03-03T03:39:16.033Z,-0.20
2023-03-03T03:41:42.584Z,-0.30
2023-03-03T03:44:09.368Z,-0.20
2023-03-03T03:46:35.911Z,-0.20
2023-03-03T03:49:02.466Z,-0.10
2023-03-03T03:51:29.126Z,-0.10
2023-03-03T03:53:55.665Z,-0.20
2023-03-03T03:56:22.242Z,-0.10
2023-03-03T03:58:48.804Z,-0.10
2023-03-03T04:01:15.421Z,0.00
2023-03-03T04:03:42.007Z,0.00
2023-03-03T04:06:08.573Z,0.00
2023-03-03T04:08:35.200Z,0.10
2023-03-03T04:11:01.772Z,0.10
2023-03-03T04:13:31.841Z,0.20
2023-03-03T04:15:58.513Z,0.20
2023-03-03T04:18:25.296Z,0.20
2023-03-03T04:20:52.735Z,0.20
2023-03-03T04:23:19.574Z,0.20
2023-03-03T04:25:48.064Z,0.30
2023-03-03T04:28:15.604Z,0.30
2023-03-03T04:30:42.603Z,0.40
2023-03-03T04:33:09.797Z,0.40
2023-03-03T04:35:36.404Z,0.50
2023-03-03T04:38:03.012Z,0.60
2023-03-03T04:40:29.598Z,0.60
2023-03-03T04:42:56.153Z,0.60
2023-03-03T04:45:22.757Z,0.60
2023-03-03T04:47:49.294Z,0.60
2023-03-03T04:50:16.398Z,0.60
2023-03-03T04:52:43.052Z,0.60
2023-03-03T04:55:10.593Z,0.70
2023-03-03T04:57:37.394Z,0.60
2023-03-03T05:00:04.873Z,0.70
2023-03-03T05:02:31.438Z,0.70
2023-03-03T05:04:58.083Z,0.70
2023-03-03T05:07:24.712Z,0.70
2023-03-03T05:09:51.453Z,0.80
2023-03-03T05:12:18.075Z,0.70
2023-03-03T05:14:44.649Z,0.70
2023-03-03T05:17:11.204Z,0.80
2023-03-03T05:22:05.684Z,1.00
2023-03-03T05:24:32.289Z,0.90
2023-03-03T05:26:58.889Z,0.90
2023-03-03T05:29:26.212Z,1.00
2023-03-03T05:31:52.916Z,1.00
2023-03-03T05:34:19.544Z,1.00
2023-03-03T05:36:46.127Z,1.00
2023-03-03T05:39:12.736Z,1.10
2023-03-03T05:41:39.418Z,1.10
2023-03-03T05:44:06.368Z,1.10
2023-03-03T05:46:32.981Z,1.20
2023-03-03T05:48:59.587Z,1.20
2023-03-03T05:51:26.340Z,1.20
2023-03-03T05:53:55.367Z,1.20
2023-03-03T05:56:23.024Z,1.20
2023-03-03T06:13:41.309Z,1.60
2023-03-03T06:16:08.433Z,1.60
2023-03-03T06:18:35.056Z,1.50
2023-03-03T06:21:01.755Z,1.50
2023-03-03T06:23:28.464Z,1.50
2023-03-03T06:25:59.442Z,1.50
2023-03-03T06:28:26.165Z,1.50
2023-03-03T06:30:56.311Z,1.50
2023-03-03T06:33:23.108Z,1.60
2023-03-03T06:35:54.149Z,1.60
2023-03-03T06:38:21.367Z,1.60
2023-03-03T06:40:48.140Z,1.70
2023-03-03T06:43:14.725Z,1.70
2023-03-03T06:45:41.443Z,1.70
2023-03-03T06:48:08.022Z,1.80
2023-03-03T06:50:34.918Z,1.80
2023-03-03T06:53:12.959Z,1.80
2023-03-03T06:55:40.330Z,1.90
2023-03-03T06:58:15.978Z,2.00
2023-03-03T07:00:44.804Z,2.10
2023-03-03T07:03:21.587Z,2.10
2023-03-03T07:05:48.308Z,2.20
2023-03-03T07:08:18.325Z,2.10
2023-03-03T07:10:46.133Z,2.20
2023-03-03T07:13:27.307Z,2.20
2023-03-03T07:15:56.054Z,2.20
2023-03-03T07:18:46.024Z,2.20
2023-03-03T07:21:23.137Z,2.30
2023-03-03T07:23:52.045Z,2.40
2023-03-03T07:26:30.557Z,2.50
2023-03-03T07:29:22.069Z,2.50
2023-03-03T07:31:49.875Z,2.60
2023-03-03T07:34:26.913Z,2.70
2023-03-03T07:36:57.697Z,2.70
2023-03-03T07:39:40.576Z,2.80
2023-03-03T07:42:22.824Z,2.90
2023-03-03T07:44:55.231Z,2.90
2023-03-03T07:47:24.024Z,2.90
2023-03-03T07:49:52.410Z,3.00
2023-03-03T07:52:27.286Z,3.10
2023-03-03T07:54:57.080Z,3.00
2023-03-03T07:57:34.784Z,3.10
2023-03-03T08:00:19.098Z,3.10
2023-03-03T08:02:55.290Z,3.00
2023-03-03T08:05:39.914Z,3.10
2023-03-03T08:08:09.498Z,3.10
2023-03-03T08:10:53.085Z,3.40
2023-03-03T08:13:29.482Z,3.50
2023-03-03T08:16:23.038Z,3.60
2023-03-03T08:18:51.700Z,3.80
2023-03-03T08:21:20.644Z,3.80
2023-03-03T08:23:49.208Z,3.70
2023-03-03T08:26:16.922Z,3.70
2023-03-03T08:28:43.777Z,3.80
2023-03-03T08:31:22.396Z,3.90
2023-03-03T08:33:54.816Z,4.00
2023-03-03T08:36:21.518Z,4.00
2023-03-03T08:38:48.174Z,3.40
2023-03-03T08:41:14.997Z,3.30
2023-03-03T08:43:41.649Z,3.50
2023-03-03T08:46:10.333Z,3.50
2023-03-03T08:48:37.454Z,3.50
2023-03-03T08:51:04.441Z,3.40
2023-03-03T08:53:33.563Z,3.50
2023-03-03T08:56:00.157Z,3.60
2023-03-03T08:58:34.971Z,3.70
2023-03-03T09:01:04.868Z,3.70
2023-03-03T09:03:31.740Z,3.70
2023-03-03T09:05:58.581Z,3.90
2023-03-03T09:08:25.171Z,4.10
2023-03-03T09:10:51.768Z,4.30
2023-03-03T09:13:19.356Z,4.80
2023-03-03T09:15:46.711Z,5.10
2023-03-03T09:18:31.423Z,4.80
2023-03-03T09:20:57.997Z,5.10
2023-03-03T09:23:36.180Z,5.20
2023-03-03T09:26:44.360Z,5.10
2023-03-03T09:29:28.998Z,4.60
2023-03-03T09:32:02.004Z,4.60
2023-03-03T09:34:40.986Z,4.80
2023-03-03T09:37:32.378Z,4.80
2023-03-03T09:39:59.344Z,4.80
2023-03-03T09:42:54.661Z,4.90
2023-03-03T09:45:40.673Z,4.60
2023-03-03T09:48:35.167Z,4.90
2023-03-03T09:51:19.478Z,5.20
2023-03-03T09:53:54.965Z,5.00
2023-03-03T09:56:24.560Z,4.70
2023-03-03T09:59:21.813Z,4.70
2023-03-03T10:02:01.369Z,5.00
2023-03-03T10:05:09.869Z,5.30
2023-03-03T10:08:18.207Z,5.70
2023-03-03T10:11:20.300Z,6.20
2023-03-03T10:14:18.868Z,6.10
2023-03-03T10:17:03.835Z,6.40
2023-03-03T10:20:00.962Z,6.40
2023-03-03T10:22:50.557Z,6.50
2023-03-03T10:25:23.056Z,6.60
2023-03-03T10:27:58.838Z,6.40
2023-03-03T10:30:46.187Z,6.80
2023-03-03T10:33:32.972Z,7.10
2023-03-03T10:36:08.585Z,7.10
2023-03-03T10:38:42.061Z,7.10
2023-03-03T10:41:15.150Z,7.30
2023-03-03T10:43:47.632Z,6.90
2023-03-03T10:46:26.135Z,7.20
2023-03-03T10:49:13.166Z,7.60
2023-03-03T10:51:55.314Z,7.80
2023-03-03T10:54:49.030Z,7.80
2023-03-03T10:57:38.154Z,7.90
2023-03-03T11:00:16.915Z,7.70
2023-03-03T11:03:08.756Z,7.50
2023-03-03T11:05:43.475Z,7.70
2023-03-03T11:08:49.482Z,7.60
2023-03-03T11:11:28.022Z,7.40
2023-03-03T11:14:09.327Z,7.60
2023-03-03T11:17:04.626Z,7.90
2023-03-03T11:19:52.659Z,7.90
2023-03-03T11:22:28.188Z,8.10
2023-03-03T11:25:24.799Z,8.10
2023-03-03T11:28:14.390Z,8.30
2023-03-03T11:30:58.751Z,8.00
2023-03-03T11:34:00.565Z,8.10
2023-03-03T11:36:39.148Z,7.80
2023-03-03T11:39:11.708Z,7.90
2023-03-03T11:41:43.421Z,8.10
2023-03-03T11:44:47.819Z,8.50
2023-03-03T11:47:32.257Z,8.80
2023-03-03T11:50:15.203Z,8.50
2023-03-03T11:53:09.033Z,8.50
2023-03-03T11:55:41.764Z,8.50
2023-03-03T11:58:16.794Z,8.70
2023-03-03T12:01:11.409Z,8.80
2023-03-03T12:03:56.517Z,8.40
2023-03-03T12:06:58.650Z,8.40
2023-03-03T12:10:06.673Z,8.90
2023-03-03T12:12:36.099Z,9.00
2023-03-03T12:15:15.653Z,8.90
2023-03-03T12:18:16.783Z,8.90
2023-03-03T12:21:04.987Z,8.70
2023-03-03T12:23:37.257Z,8.60
2023-03-03T12:26:19.304Z,8.80
2023-03-03T12:29:12.331Z,9.00
2023-03-03T12:31:49.082Z,9.50
2023-03-03T12:34:37.496Z,9.50
2023-03-03T12:37:34.506Z,9.80
2023-03-03T12:40:21.384Z,9.20
2023-03-03T12:43:07.641Z,9.20
2023-03-03T12:45:56.039Z,8.80
2023-03-03T12:48:34.992Z,8.90
2023-03-03T12:51:38.849Z,9.00
2023-03-03T12:54:16.143Z,8.70
2023-03-03T12:56:58.069Z,8.80
2023-03-03T12:59:30.520Z,8.80
2023-03-03T13:02:45.315Z,8.60
2023-03-03T13:05:40.618Z,8.60
2023-03-03T13:08:23.766Z,8.30
2023-03-03T13:11:09.155Z,8.60
2023-03-03T13:14:14.311Z,8.60
2023-03-03T13:16:54.712Z,8.50
2023-03-03T13:19:27.092Z,8.60
2023-03-03T13:22:22.321Z,8.30
2023-03-03T13:25:09.969Z,8.40
2023-03-03T13:27:41.995Z,8.40
2023-03-03T13:30:24.532Z,8.30
2023-03-03T13:32:59.437Z,8.50
2023-03-03T13:35:45.903Z,8.60
2023-03-03T13:38:20.409Z,8.50
2023-03-03T13:41:28.669Z,8.60
2023-03-03T13:44:03.972Z,8.70
2023-03-03T13:47:02.667Z,8.70
2023-03-03T13:49:48.219Z,8.70
2023-03-03T13:52:27.148Z,8.80
2023-03-03T13:54:55.910Z,8.90
2023-03-03T13:57:56.108Z,8.80
2023-03-03T14:00:30.079Z,8.80
2023-03-03T14:05:56.189Z,8.90
2023-03-03T14:08:28.271Z,8.90
2023-03-03T14:11:30.845Z,8.80
2023-03-03T14:14:12.251Z,8.90
2023-03-03T14:16:52.034Z,8.90
2023-03-03T14:19:43.865Z,8.90
2023-03-03T14:22:32.245Z,8.80
2023-03-03T14:25:11.462Z,8.90
2023-03-03T14:27:53.163Z,8.80
2023-03-03T14:30:22.653Z,8.80
2023-03-03T14:33:07.599Z,9.00
2023-03-03T14:38:15.733Z,10.80
2023-03-03T14:40:45.500Z,11.50
2023-03-03T14:43:27.050Z,11.70
2023-03-03T14:45:55.055Z,11.10
2023-03-03T14:48:24.790Z,10.40
2023-03-03T14:50:53.041Z,9.90
2023-03-03T14:53:19.715Z,9.70
2023-03-03T14:55:49.430Z,9.50
2023-03-03T14:58:29.848Z,9.40
2023-03-03T15:01:29.802Z,9.40
2023-03-03T15:04:05.422Z,9.90
2023-03-03T15:06:43.964Z,10.70
2023-03-03T15:09:38.210Z,11.60
2023-03-03T15:12:38.662Z,11.00
2023-03-03T15:15:05.476Z,10.30
2023-03-03T15:17:37.842Z,9.80
2023-03-03T15:20:40.627Z,9.50
2023-03-03T15:23:29.307Z,9.40
2023-03-03T15:26:04.594Z,9.10
2023-03-03T15:31:33.058Z,8.90
2023-03-03T15:34:26.339Z,8.90
2023-03-03T15:37:06.181Z,8.90
2023-03-03T15:39:59.109Z,8.80
2023-03-03T15:42:41.369Z,8.90
2023-03-03T15:45:31.708Z,8.80
2023-03-03T15:48:19.926Z,8.80
2023-03-03T15:51:24.452Z,8.70
2023-03-03T15:54:16.543Z,8.70
2023-03-03T15:56:53.927Z,8.80
2023-03-03T15:59:46.303Z,8.90
2023-03-03T16:02:17.527Z,8.90
2023-03-03T16:05:20.170Z,9.10
2023-03-03T16:07:55.522Z,8.90
2023-03-03T16:10:36.721Z,8.60
2023-03-03T16:13:16.968Z,8.40
2023-03-03T16:16:01.861Z,8.30
2023-03-03T16:18:35.678Z,8.20
2023-03-03T16:21:23.915Z,8.00
2023-03-03T16:24:00.792Z,7.90
2023-03-03T16:26:36.871Z,7.80
2023-03-03T16:37:07.661Z,7.30
2023-03-03T16:39:42.933Z,7.20
2023-03-03T16:42:24.049Z,7.00
2023-03-03T16:45:15.438Z,6.90
2023-03-03T16:47:57.499Z,6.70
2023-03-03T16:50:38.921Z,6.50
2023-03-03T16:53:31.984Z,6.40
2023-03-03T16:56:14.528Z,6.20
2023-03-03T16:58:59.755Z,6.10
2023-03-03T17:01:47.940Z,5.90
2023-03-03T17:04:57.596Z,5.70
2023-03-03T17:07:44.632Z,5.50
2023-03-03T17:10:29.460Z,5.40
2023-03-03T17:13:42.180Z,5.20
2023-03-03T17:16:18.108Z,5.10
2023-03-03T17:18:54.786Z,4.90
2023-03-03T17:21:46.215Z,4.70
2023-03-03T17:24:22.276Z,4.60
2023-03-03T17:27:08.010Z,4.50
2023-03-03T17:29:44.568Z,4.50
2023-03-03T17:32:33.635Z,4.40
2023-03-03T17:35:18.743Z,4.30
2023-03-03T17:37:54.176Z,4.30
2023-03-03T17:40:23.901Z,4.10
2023-03-03T17:43:18.949Z,4.00
2023-03-03T17:45:49.051Z,4.00
2023-03-03T17:48:43.605Z,3.90
2023-03-03T17:51:30.559Z,3.80
2023-03-03T17:54:21.499Z,3.80
2023-03-03T17:57:23.699Z,3.70
2023-03-03T18:00:19.267Z,3.60
2023-03-03T18:03:03.506Z,3.40
2023-03-03T18:06:02.687Z,3.40
2023-03-03T18:08:29.244Z,3.40
2023-03-03T18:11:10.918Z,3.60
2023-03-03T18:14:13.684Z,3.60
2023-03-03T18:16:52.387Z,3.80
2023-03-03T18:19:46.444Z,4.00
2023-03-03T18:22:21.111Z,4.10
2023-03-03T18:24:50.394Z,4.00
2023-03-03T18:27:35.858Z,4.10
2023-03-03T18:30:08.413Z,4.30
2023-03-03T18:32:57.118Z,4.30
2023-03-03T18:35:38.335Z,4.20
2023-03-03T18:38:25.458Z,3.90
2023-03-03T18:40:56.519Z,3.60
2023-03-03T18:43:45.141Z,3.30
2023-03-03T18:46:22.450Z,3.10
2023-03-03T18:48:54.593Z,2.90
2023-03-03T18:51:39.562Z,2.80
2023-03-03T18:54:30.561Z,2.70
2023-03-03T18:56:57.686Z,2.80
2023-03-03T18:59:36.363Z,2.80
2023-03-03T19:02:18.023Z,2.70
2023-03-03T19:04:51.231Z,2.70
2023-03-03T19:07:26.971Z,2.60
2023-03-03T19:10:02.696Z,2.50
2023-03-03T19:12:58.002Z,2.50
2023-03-03T19:15:35.486Z,2.50
2023-03-03T19:18:20.948Z,2.40
2023-03-03T19:20:55.123Z,2.50
2023-03-03T19:24:00.744Z,2.40
2023-03-03T19:26:30.427Z,2.40
2023-03-03T19:29:15.893Z,2.20
2023-03-03T19:32:28.227Z,2.20
2023-03-03T19:35:04.213Z,2.20
2023-03-03T19:37:53.381Z,2.10
2023-03-03T19:40:43.476Z,2.10
2023-03-03T19:43:29.031Z,2.00
2023-03-03T19:46:12.541Z,2.00
2023-03-03T19:49:05.231Z,2.00
2023-03-03T19:52:04.947Z,2.00
2023-03-03T19:54:49.694Z,2.00
2023-03-03T19:57:34.206Z,1.90
2023-03-03T20:00:14.025Z,2.00
2023-03-03T20:03:21.722Z,1.90
2023-03-03T20:06:16.861Z,1.90
2023-03-03T20:08:59.433Z,1.90
2023-03-03T20:11:46.160Z,1.90
2023-03-03T20:14:27.908Z,1.90
2023-03-03T20:16:58.268Z,1.80
2023-03-03T20:19:55.811Z,1.80
2023-03-03T20:22:34.317Z,1.70
2023-03-03T20:25:25.592Z,1.70
2023-03-03T20:27:54.956Z,1.70
2023-03-03T20:30:30.970Z,1.70
2023-03-03T20:33:37.691Z,1.80
2023-03-03T20:36:16.639Z,1.80
2023-03-03T20:39:04.571Z,1.80
2023-03-03T20:41:46.277Z,1.80
2023-03-03T20:44:38.894Z,1.70
2023-03-03T20:47:30.159Z,1.70
2023-03-03T20:50:22.030Z,1.60
2023-03-03T20:52:51.347Z,1.60
2023-03-03T20:55:47.392Z,1.60
2023-03-03T20:58:59.268Z,1.80
2023-03-03T21:01:58.300Z,1.80
2023-03-03T21:04:30.886Z,1.80
2023-03-03T21:06:58.324Z,1.80
2023-03-03T21:09:33.576Z,1.70
2023-03-03T21:14:33.239Z,1.50
2023-03-03T21:17:02.607Z,1.50
2023-03-03T21:19:30.604Z,1.40
2023-03-03T21:22:00.838Z,1.40
2023-03-03T22:03:20.707Z,1.50
2023-03-03T22:05:50.624Z,1.40
2023-03-03T22:08:23.235Z,1.40
2023-03-03T22:10:55.953Z,1.30
2023-03-03T22:13:24.169Z,1.30
2023-03-03T22:15:51.543Z,1.30
2023-03-03T22:18:19.481Z,1.20
2023-03-03T22:20:47.268Z,1.10
2023-03-03T22:23:15.486Z,1.10
2023-03-03T22:25:42.469Z,1.10
2023-03-03T22:28:09.404Z,1.00
2023-03-03T22:30:36.733Z,1.00
2023-03-03T22:33:03.637Z,1.00
2023-03-03T22:35:30.535Z,1.00
2023-03-03T22:37:57.258Z,1.00
2023-03-03T22:40:24.176Z,1.00
2023-03-03T22:42:50.865Z,1.00
2023-03-03T22:45:17.462Z,1.10
2023-03-03T22:47:44.036Z,1.00
2023-03-03T22:50:11.491Z,1.00
2023-03-03T22:52:38.230Z,0.90
2023-03-03T22:55:05.329Z,0.80
2023-03-03T22:57:31.918Z,0.90
2023-03-03T22:59:59.865Z,0.80
2023-03-03T23:02:26.432Z,0.80
2023-03-03T23:04:58.028Z,0.90
2023-03-03T23:07:26.298Z,1.00
2023-03-03T23:09:53.094Z,1.00
2023-03-03T23:12:19.861Z,1.00
2023-03-03T23:14:46.429Z,0.80
2023-03-03T23:17:12.982Z,0.70
2023-03-03T23:19:39.564Z,0.50
2023-03-03T23:22:06.113Z,0.30
2023-03-03T23:24:33.108Z,0.30
2023-03-03T23:27:00.672Z,0.20
2023-03-03T23:29:27.374Z,0.20
2023-03-03T23:31:54.183Z,0.10
2023-03-03T23:34:20.948Z,0.10
2023-03-03T23:36:47.835Z,0.10
2023-03-03T23:39:15.211Z,0.10
2023-03-03T23:41:41.998Z,0.10
2023-03-03T23:44:08.698Z,0.00
2023-03-03T23:46:35.342Z,0.00
2023-03-03T23:49:02.076Z,-0.10
2023-03-03T23:51:28.729Z,-0.10
2023-03-03T23:53:56.023Z,-0.10
2023-03-03T23:56:22.702Z,-0.20
2023-03-03T23:58:49.385Z,-0.20
